createdAt,value
2022-08-18T00:01:14.702Z,23.65
2022-08-18T00:03:55.640Z,23.68
2022-08-18T00:06:28.776Z,23.65
2022-08-18T00:08:56.763Z,23.59
2022-08-18T00:11:23.788Z,23.54
2022-08-18T00:13:54.290Z,23.51
2022-08-18T00:16:20.804Z,23.54
2022-08-18T00:18:47.314Z,23.56
2022-08-18T00:21:13.826Z,23.60
2022-08-18T00:23:41.195Z,23.64
2022-08-18T00:26:07.781Z,23.69
2022-08-18T00:28:34.570Z,23.76
2022-08-18T00:31:01.369Z,23.81
2022-08-18T00:33:29.163Z,23.85
2022-08-18T00:35:56.667Z,23.88
2022-08-18T00:38:25.206Z,23.89
2022-08-18T00:40:54.662Z,23.90
2022-08-18T00:43:43.768Z,23.92
2022-08-18T00:46:16.421Z,23.95
2022-08-18T00:48:48.700Z,23.95
2022-08-18T00:51:38.534Z,23.92
2022-08-18T00:54:24.123Z,23.92
2022-08-18T00:56:56.780Z,23.93
2022-08-18T00:59:23.203Z,23.99
2022-08-18T01:01:51.385Z,24.01
2022-08-18T01:04:28.434Z,24.02
2022-08-18T01:07:00.689Z,24.01
2022-08-18T01:09:27.439Z,24.00
2022-08-18T01:11:54.242Z,24.03
2022-08-18T01:14:22.277Z,24.05
2022-08-18T01:17:08.938Z,24.08
2022-08-18T01:19:55.072Z,24.10
2022-08-18T01:22:29.101Z,24.07
2022-08-18T01:25:16.750Z,24.04
2022-08-18T01:27:43.732Z,24.03
2022-08-18T01:30:15.355Z,24.03
2022-08-18T01:32:44.244Z,24.03
2022-08-18T01:35:13.194Z,24.03
2022-08-18T01:37:41.255Z,24.05
2022-08-18T01:41:24.293Z,24.03
2022-08-18T01:42:56.498Z,24.03
2022-08-18T01:45:23.129Z,24.03
2022-08-18T01:47:50.690Z,24.04
2022-08-18T01:50:17.993Z,24.04
2022-08-18T01:52:44.633Z,24.02
2022-08-18T01:55:11.190Z,24.01
2022-08-18T01:57:42.963Z,23.98
2022-08-18T02:00:12.561Z,23.96
2022-08-18T02:02:41.895Z,23.96
2022-08-18T02:05:18.337Z,23.94
2022-08-18T02:07:45.239Z,23.94
2022-08-18T02:10:12.515Z,23.93
2022-08-18T02:12:43.731Z,23.92
2022-08-18T02:15:11.793Z,23.93
2022-08-18T02:17:40.322Z,23.93
2022-08-18T02:20:08.547Z,23.91
2022-08-18T02:22:35.101Z,23.92
2022-08-18T02:25:01.761Z,23.91
2022-08-18T02:27:28.939Z,23.89
2022-08-18T02:29:55.839Z,23.87
2022-08-18T02:32:22.414Z,23.85
2022-08-18T02:34:52.228Z,23.83
2022-08-18T02:37:18.782Z,23.82
2022-08-18T02:39:45.756Z,23.76
2022-08-18T02:42:14.785Z,23.71
2022-08-18T02:44:43.353Z,23.67
2022-08-18T02:47:10.127Z,23.62
2022-08-18T02:49:36.956Z,23.59
2022-08-18T02:52:03.891Z,23.59
2022-08-18T02:54:31.175Z,23.58
2022-08-18T02:56:57.904Z,23.56
2022-08-18T02:59:27.466Z,23.53
2022-08-18T03:01:56.318Z,23.50
2022-08-18T03:04:30.282Z,23.47
2022-08-18T03:07:01.281Z,23.44
2022-08-18T03:09:29.211Z,23.44
2022-08-18T03:11:55.927Z,23.47
2022-08-18T03:14:23.871Z,23.51
2022-08-18T03:16:54.924Z,23.51
2022-08-18T03:19:29.594Z,23.51
2022-08-18T03:22:02.515Z,23.53
2022-08-18T03:24:32.687Z,23.52
2022-08-18T03:27:00.868Z,23.51
2022-08-18T03:29:32.004Z,23.49
2022-08-18T03:32:03.634Z,23.46
2022-08-18T03:34:32.245Z,23.49
2022-08-18T03:36:59.571Z,23.51
2022-08-18T03:39:27.893Z,23.52
2022-08-18T03:41:59.786Z,23.55
2022-08-18T03:44:33.173Z,23.58
2022-08-18T03:47:03.100Z,23.57
2022-08-18T03:49:31.618Z,23.56
2022-08-18T03:52:00.674Z,23.54
2022-08-18T03:54:27.721Z,23.53
2022-08-18T03:56:55.873Z,23.54
2022-08-18T03:59:26.941Z,23.54
2022-08-18T04:01:55.338Z,23.53
2022-08-18T04:04:26.470Z,23.51
2022-08-18T04:06:58.472Z,23.51
2022-08-18T04:09:27.996Z,23.52
2022-08-18T04:11:55.785Z,23.50
2022-08-18T04:14:31.813Z,23.48
2022-08-18T04:16:59.216Z,23.47
2022-08-18T04:19:27.601Z,23.45
2022-08-18T04:21:57.051Z,23.42
2022-08-18T04:24:32.051Z,23.38
2022-08-18T04:27:02.318Z,23.35
2022-08-18T04:29:29.012Z,23.33
2022-08-18T04:31:56.077Z,23.27
2022-08-18T04:34:22.886Z,23.24
2022-08-18T04:36:53.805Z,23.21
2022-08-18T04:39:21.841Z,23.18
2022-08-18T04:41:48.819Z,23.17
2022-08-18T04:44:17.530Z,23.17
2022-08-18T04:46:47.840Z,23.15
2022-08-18T04:49:16.008Z,23.14
2022-08-18T04:52:34.111Z,23.12
2022-08-18T04:54:52.457Z,23.14
2022-08-18T04:57:21.606Z,23.13
2022-08-18T04:59:50.812Z,23.13
2022-08-18T05:02:18.980Z,23.16
2022-08-18T05:04:47.390Z,23.18
2022-08-18T05:07:17.207Z,23.21
2022-08-18T05:09:43.723Z,23.24
2022-08-18T05:12:14.170Z,23.26
2022-08-18T05:14:45.040Z,23.27
2022-08-18T05:17:12.491Z,23.28
2022-08-18T05:19:42.367Z,23.27
2022-08-18T05:22:13.890Z,23.27
2022-08-18T05:24:41.977Z,23.23
2022-08-18T05:27:08.597Z,23.20
2022-08-18T05:29:41.513Z,23.14
2022-08-18T05:32:12.069Z,23.12
2022-08-18T05:35:05.089Z,23.10
2022-08-18T05:37:45.893Z,23.10
2022-08-18T05:40:15.016Z,23.10
2022-08-18T05:42:42.773Z,23.12
2022-08-18T05:45:16.770Z,23.13
2022-08-18T05:47:43.637Z,23.16
2022-08-18T05:50:17.943Z,23.16
2022-08-18T05:52:54.223Z,23.17
2022-08-18T05:55:52.635Z,23.19
2022-08-18T05:58:33.056Z,23.21
2022-08-18T06:01:08.958Z,23.20
2022-08-18T06:03:48.917Z,23.20
2022-08-18T06:06:20.832Z,23.18
2022-08-18T06:09:09.675Z,23.17
2022-08-18T06:11:36.236Z,23.14
2022-08-18T06:14:02.812Z,23.12
2022-08-18T06:17:13.617Z,23.11
2022-08-18T06:20:03.561Z,23.16
2022-08-18T06:22:58.379Z,23.20
2022-08-18T06:25:57.607Z,23.20
2022-08-18T06:28:25.721Z,23.21
2022-08-18T06:31:12.697Z,23.23
2022-08-18T06:33:54.627Z,23.28
2022-08-18T06:36:47.648Z,23.27
2022-08-18T06:39:22.295Z,23.34
2022-08-18T06:41:50.436Z,23.38
2022-08-18T06:44:53.302Z,23.38
2022-08-18T06:47:40.754Z,23.43
2022-08-18T06:50:08.765Z,23.50
2022-08-18T06:52:38.441Z,23.56
2022-08-18T06:55:13.903Z,23.59
2022-08-18T06:57:57.777Z,23.60
2022-08-18T07:00:32.736Z,23.64
2022-08-18T07:06:09.146Z,23.74
2022-08-18T07:08:42.433Z,23.76
2022-08-18T07:11:24.190Z,23.80
2022-08-18T07:14:14.969Z,23.79
2022-08-18T07:16:59.579Z,23.82
2022-08-18T07:19:29.830Z,23.84
2022-08-18T07:22:12.309Z,23.87
2022-08-18T07:24:50.628Z,23.93
2022-08-18T07:27:20.895Z,23.97
2022-08-18T07:30:06.187Z,23.99
2022-08-18T07:32:44.443Z,24.08
2022-08-18T07:35:12.987Z,24.15
2022-08-18T07:37:49.131Z,24.19
2022-08-18T07:40:36.794Z,24.29
2022-08-18T07:43:16.344Z,24.37
2022-08-18T07:45:46.109Z,24.47
2022-08-18T07:48:38.188Z,24.57
2022-08-18T07:51:37.574Z,24.69
2022-08-18T07:54:37.706Z,24.81
2022-08-18T07:57:29.432Z,24.99
2022-08-18T08:00:18.854Z,25.12
2022-08-18T08:03:31.090Z,25.19
2022-08-18T08:06:08.598Z,25.22
2022-08-18T08:08:59.006Z,25.23
2022-08-18T08:11:53.997Z,25.20
2022-08-18T08:14:39.424Z,25.23
2022-08-18T08:17:05.846Z,25.28
2022-08-18T08:20:00.033Z,25.38
2022-08-18T08:23:17.312Z,25.39
2022-08-18T08:26:22.216Z,25.43
2022-08-18T08:28:56.166Z,25.45
2022-08-18T08:31:39.185Z,25.48
2022-08-18T08:34:28.444Z,25.49
2022-08-18T08:37:02.461Z,25.51
2022-08-18T08:39:36.168Z,25.58
2022-08-18T08:42:31.986Z,25.65
2022-08-18T08:45:15.999Z,25.71
2022-08-18T08:47:58.368Z,25.78
2022-08-18T08:50:31.068Z,25.82
2022-08-18T08:53:27.882Z,25.93
2022-08-18T08:56:02.415Z,26.02
2022-08-18T08:58:37.750Z,26.05
2022-08-18T09:01:05.984Z,26.07
2022-08-18T09:03:58.125Z,26.11
2022-08-18T09:06:44.442Z,26.17
2022-08-18T09:09:26.346Z,26.26
2022-08-18T09:12:12.379Z,26.39
2022-08-18T09:15:25.439Z,26.55
2022-08-18T09:18:08.402Z,26.75
2022-08-18T09:20:58.241Z,26.91
2022-08-18T09:23:32.700Z,27.08
2022-08-18T09:26:20.591Z,27.28
2022-08-18T09:29:00.647Z,27.50
2022-08-18T09:31:31.793Z,27.63
2022-08-18T09:34:10.975Z,27.71
2022-08-18T09:36:40.664Z,27.77
2022-08-18T09:39:54.758Z,27.76
2022-08-18T09:42:50.027Z,27.73
2022-08-18T09:45:34.301Z,27.73
2022-08-18T09:50:37.345Z,27.70
2022-08-18T09:51:18.265Z,27.70
2022-08-18T09:54:09.044Z,27.61
2022-08-18T09:56:54.144Z,27.60
2022-08-18T09:59:34.303Z,27.65
2022-08-18T10:02:28.230Z,27.71
2022-08-18T10:05:20.172Z,27.79
2022-08-18T10:08:01.568Z,27.88
2022-08-18T10:11:17.610Z,27.88
2022-08-18T10:14:10.827Z,27.96
2022-08-18T10:20:23.890Z,28.04
2022-08-18T10:22:55.484Z,28.09
2022-08-18T10:25:34.121Z,28.11
2022-08-18T10:28:05.300Z,28.16
2022-08-18T10:30:56.309Z,28.21
2022-08-18T10:33:58.926Z,28.24
2022-08-18T10:37:11.398Z,28.27
2022-08-18T10:39:50.811Z,28.32
2022-08-18T10:42:34.612Z,28.37
2022-08-18T10:45:06.917Z,28.47
2022-08-18T10:47:34.324Z,28.53
2022-08-18T10:50:06.946Z,28.55
2022-08-18T10:55:56.971Z,28.55
2022-08-18T10:58:42.132Z,28.65
2022-08-18T11:01:20.520Z,28.75
2022-08-18T11:04:07.407Z,28.87
2022-08-18T11:06:47.534Z,29.01
2022-08-18T11:09:25.300Z,29.07
2022-08-18T11:11:59.606Z,29.13
2022-08-18T11:14:39.477Z,29.14
2022-08-18T11:17:44.166Z,29.13
2022-08-18T11:20:14.524Z,29.13
2022-08-18T11:22:56.901Z,29.15
2022-08-18T11:25:35.262Z,29.20
2022-08-18T11:28:02.588Z,29.29
2022-08-18T11:30:37.571Z,29.40
2022-08-18T11:33:16.173Z,29.51
2022-08-18T11:35:54.678Z,29.70
2022-08-18T11:38:23.509Z,29.82
2022-08-18T11:41:11.960Z,29.87
2022-08-18T11:43:46.793Z,29.91
2022-08-18T11:46:27.729Z,29.91
2022-08-18T11:49:28.592Z,29.90
2022-08-18T11:52:03.540Z,29.97
2022-08-18T11:54:39.996Z,30.01
2022-08-18T12:00:46.896Z,30.13
2022-08-18T12:03:29.403Z,30.23
2022-08-18T12:05:59.576Z,30.41
2022-08-18T12:08:58.126Z,30.56
2022-08-18T12:11:26.620Z,30.70
2022-08-18T12:14:30.123Z,30.82
2022-08-18T12:16:55.470Z,30.95
2022-08-18T12:19:24.422Z,31.01
2022-08-18T12:21:56.793Z,31.08
2022-08-18T12:24:36.826Z,31.14
2022-08-18T12:27:12.302Z,31.24
2022-08-18T12:29:47.637Z,31.27
2022-08-18T12:32:18.185Z,31.33
2022-08-18T12:35:09.275Z,31.42
2022-08-18T12:40:26.397Z,31.59
2022-08-18T12:42:53.683Z,31.65
2022-08-18T12:45:23.531Z,31.69
2022-08-18T12:47:51.504Z,31.78
2022-08-18T12:50:19.484Z,31.88
2022-08-18T12:52:46.829Z,31.97
2022-08-18T12:55:22.010Z,32.02
2022-08-18T12:57:51.637Z,32.00
2022-08-18T13:00:21.019Z,31.97
2022-08-18T13:02:54.601Z,32.01
2022-08-18T13:05:27.659Z,32.04
2022-08-18T13:08:00.847Z,31.97
2022-08-18T13:10:43.313Z,31.87
2022-08-18T13:13:17.144Z,31.96
2022-08-18T13:15:58.046Z,31.92
2022-08-18T13:18:28.688Z,31.83
2022-08-18T13:20:57.709Z,31.91
2022-08-18T13:23:27.597Z,32.05
2022-08-18T13:26:01.598Z,32.17
2022-08-18T13:28:33.436Z,32.29
2022-08-18T13:31:06.262Z,32.32
2022-08-18T13:33:57.234Z,32.34
2022-08-18T13:36:24.600Z,32.38
2022-08-18T13:38:55.588Z,32.43
2022-08-18T13:43:52.181Z,32.47
2022-08-18T13:46:19.732Z,32.37
2022-08-18T13:49:02.239Z,32.39
2022-08-18T13:51:29.846Z,32.41
2022-08-18T13:54:17.860Z,32.37
2022-08-18T13:56:52.032Z,32.33
2022-08-18T13:59:21.561Z,32.31
2022-08-18T14:01:51.912Z,32.31
2022-08-18T14:04:22.845Z,32.23
2022-08-18T14:06:57.240Z,32.13
2022-08-18T14:09:27.877Z,32.15
2022-08-18T14:12:23.815Z,32.18
2022-08-18T14:14:55.504Z,32.22
2022-08-18T14:17:25.432Z,32.20
2022-08-18T14:20:21.418Z,32.23
2022-08-18T14:23:06.731Z,32.29
2022-08-18T14:25:51.902Z,32.32
2022-08-18T14:28:19.608Z,32.32
2022-08-18T14:30:54.418Z,32.41
2022-08-18T14:33:34.141Z,32.45
2022-08-18T14:36:06.085Z,32.60
2022-08-18T14:38:36.448Z,32.82
2022-08-18T14:41:07.547Z,33.00
2022-08-18T14:43:55.613Z,33.06
2022-08-18T14:46:23.062Z,33.00
2022-08-18T14:48:56.441Z,32.86
2022-08-18T14:51:27.031Z,32.83
2022-08-18T14:53:55.708Z,32.79
2022-08-18T14:56:23.434Z,32.77
2022-08-18T14:58:54.935Z,32.75
2022-08-18T15:01:22.910Z,32.75
2022-08-18T15:03:50.578Z,32.79
2022-08-18T15:06:22.980Z,32.74
2022-08-18T15:08:57.137Z,32.68
2022-08-18T15:11:24.712Z,32.57
2022-08-18T15:13:55.081Z,32.48
2022-08-18T15:16:27.101Z,32.44
2022-08-18T15:18:58.929Z,32.36
2022-08-18T15:21:44.174Z,32.35
2022-08-18T15:24:29.032Z,32.31
2022-08-18T15:26:58.043Z,32.21
2022-08-18T15:29:29.696Z,32.12
2022-08-18T15:32:05.665Z,32.02
2022-08-18T15:34:46.343Z,31.89
2022-08-18T15:37:14.047Z,31.78
2022-08-18T15:39:41.190Z,31.67
2022-08-18T15:42:10.706Z,31.58
2022-08-18T15:44:38.078Z,31.51
2022-08-18T15:47:05.855Z,31.46
2022-08-18T15:49:35.965Z,31.41
2022-08-18T15:52:02.670Z,31.36
2022-08-18T15:54:30.247Z,31.30
2022-08-18T15:56:58.801Z,31.25
2022-08-18T15:59:34.213Z,31.22
2022-08-18T16:02:11.791Z,31.19
2022-08-18T16:04:43.132Z,31.13
2022-08-18T16:07:11.878Z,31.10
2022-08-18T16:09:38.507Z,31.07
2022-08-18T16:12:08.837Z,31.02
2022-08-18T16:14:41.354Z,30.98
2022-08-18T16:17:09.377Z,30.96
2022-08-18T16:19:39.696Z,30.93
2022-08-18T16:22:07.480Z,30.92
2022-08-18T16:24:34.598Z,30.90
2022-08-18T16:27:01.088Z,30.90
2022-08-18T16:29:27.607Z,30.86
2022-08-18T16:31:54.522Z,30.86
2022-08-18T16:34:21.070Z,30.83
2022-08-18T16:36:47.651Z,30.81
2022-08-18T16:39:14.174Z,30.77
2022-08-18T16:41:41.260Z,30.72
2022-08-18T16:44:12.274Z,30.69
2022-08-18T16:46:39.121Z,30.69
2022-08-18T16:49:07.791Z,30.69
2022-08-18T16:51:34.479Z,30.66
2022-08-18T16:54:05.417Z,30.64
2022-08-18T16:56:35.678Z,30.62
2022-08-18T16:59:21.287Z,30.60
2022-08-18T17:02:06.614Z,30.58
2022-08-18T17:04:33.953Z,30.56
2022-08-18T17:07:04.981Z,30.52
2022-08-18T17:09:33.191Z,30.51
2022-08-18T17:12:00.113Z,30.48
2022-08-18T17:14:29.728Z,30.48
2022-08-18T17:16:58.413Z,30.46
2022-08-18T17:19:30.210Z,30.46
2022-08-18T17:21:57.146Z,30.46
2022-08-18T17:24:31.261Z,30.46
2022-08-18T17:26:59.650Z,30.44
2022-08-18T17:29:31.301Z,30.40
2022-08-18T17:32:03.419Z,30.37
2022-08-18T17:34:41.919Z,30.34
2022-08-18T17:37:12.165Z,30.29
2022-08-18T17:39:44.167Z,30.23
2022-08-18T17:42:25.656Z,30.18
2022-08-18T17:44:59.599Z,30.13
2022-08-18T17:47:33.382Z,30.12
2022-08-18T17:50:27.703Z,30.11
2022-08-18T17:53:15.815Z,30.09
2022-08-18T17:56:21.131Z,30.07
2022-08-18T17:58:58.490Z,30.03
2022-08-18T18:01:27.160Z,29.98
2022-08-18T18:03:54.920Z,29.93
2022-08-18T18:06:37.736Z,29.90
2022-08-18T18:09:28.454Z,29.85
2022-08-18T18:11:55.030Z,29.80
2022-08-18T18:14:24.154Z,29.75
2022-08-18T18:17:07.148Z,29.68
2022-08-18T18:19:34.475Z,29.60
2022-08-18T18:22:17.991Z,29.54
2022-08-18T18:24:56.920Z,29.45
2022-08-18T18:27:30.666Z,29.38
2022-08-18T18:30:05.937Z,29.32
2022-08-18T18:32:38.230Z,29.28
2022-08-18T18:35:28.057Z,29.20
2022-08-18T18:37:59.054Z,29.17
2022-08-18T18:40:25.670Z,29.09
2022-08-18T18:42:53.101Z,29.03
2022-08-18T18:45:28.678Z,28.96
2022-08-18T18:48:03.802Z,28.88
2022-08-18T18:50:55.530Z,28.80
2022-08-18T18:53:44.862Z,28.69
2022-08-18T18:56:29.077Z,28.60
2022-08-18T18:59:14.004Z,28.52
2022-08-18T19:02:33.552Z,28.41
2022-08-18T19:05:16.580Z,28.33
2022-08-18T19:07:48.955Z,28.27
2022-08-18T19:10:27.218Z,28.16
2022-08-18T19:13:11.546Z,28.06
2022-08-18T19:16:05.489Z,28.00
2022-08-18T19:18:38.376Z,27.96
2022-08-18T19:22:04.396Z,27.94
2022-08-18T19:24:14.777Z,27.92
2022-08-18T19:27:03.694Z,27.89
2022-08-18T19:29:36.378Z,27.85
2022-08-18T19:32:25.507Z,27.80
2022-08-18T19:34:55.680Z,27.76
2022-08-18T19:37:47.254Z,27.71
2022-08-18T19:40:35.898Z,27.66
2022-08-18T19:43:12.359Z,27.61
2022-08-18T19:45:49.699Z,27.56
2022-08-18T19:48:35.638Z,27.50
2022-08-18T19:51:17.631Z,27.44
2022-08-18T19:54:06.398Z,27.37
2022-08-18T19:56:48.165Z,27.31
2022-08-18T19:59:40.211Z,27.18
2022-08-18T20:02:19.052Z,27.12
2022-08-18T20:04:59.470Z,27.08
2022-08-18T20:08:03.737Z,27.05
2022-08-18T20:10:38.356Z,27.04
2022-08-18T20:13:19.596Z,27.02
2022-08-18T20:16:10.748Z,27.01
2022-08-18T20:18:49.706Z,26.96
2022-08-18T20:21:16.591Z,26.91
2022-08-18T20:24:03.417Z,26.84
2022-08-18T20:26:38.917Z,26.81
2022-08-18T20:29:18.925Z,26.78
2022-08-18T20:32:02.861Z,26.77
2022-08-18T20:34:32.708Z,26.76
2022-08-18T20:37:01.503Z,26.75
2022-08-18T20:39:45.401Z,26.71
2022-08-18T20:42:21.120Z,26.68
2022-08-18T20:44:50.461Z,26.62
2022-08-18T20:47:31.254Z,26.49
2022-08-18T20:50:16.172Z,26.38
2022-08-18T20:53:19.639Z,26.27
2022-08-18T20:56:32.539Z,26.21
2022-08-18T20:59:30.414Z,26.16
2022-08-18T21:02:00.777Z,26.12
2022-08-18T21:04:50.113Z,26.08
2022-08-18T21:07:37.343Z,26.06
2022-08-18T21:10:20.311Z,26.03
2022-08-18T21:12:56.481Z,26.03
2022-08-18T21:15:30.200Z,25.98
2022-08-18T21:18:02.136Z,25.96
2022-08-18T21:20:31.411Z,25.91
2022-08-18T21:23:13.725Z,25.82
2022-08-18T21:25:50.570Z,25.71
2022-08-18T21:28:18.215Z,25.60
2022-08-18T21:31:42.727Z,25.48
2022-08-18T21:33:52.453Z,25.40
2022-08-18T21:36:25.203Z,25.32
2022-08-18T21:39:05.787Z,25.25
2022-08-18T21:41:39.216Z,25.18
2022-08-18T21:44:13.507Z,25.14
2022-08-18T21:46:40.213Z,25.11
2022-08-18T21:49:06.854Z,25.07
2022-08-18T21:51:49.084Z,25.07
2022-08-18T21:54:22.960Z,25.06
2022-08-18T21:57:26.618Z,25.05
2022-08-18T22:00:11.867Z,24.99
2022-08-18T22:02:39.098Z,24.98
2022-08-18T22:05:07.420Z,24.91
2022-08-18T22:07:35.469Z,24.82
2022-08-18T22:10:36.668Z,24.69
2022-08-18T22:13:06.912Z,24.60
2022-08-18T22:15:42.584Z,24.48
2022-08-18T22:18:17.969Z,24.40
2022-08-18T22:20:55.049Z,24.35
2022-08-18T22:24:02.791Z,24.31
2022-08-18T22:26:38.017Z,24.30
2022-08-18T22:29:13.419Z,24.27
2022-08-18T22:31:49.171Z,24.27
2022-08-18T22:34:27.478Z,24.23
2022-08-18T22:37:04.073Z,24.14
2022-08-18T22:39:41.283Z,24.04
2022-08-18T22:42:09.647Z,23.97
2022-08-18T22:44:41.516Z,23.89
2022-08-18T22:47:09.345Z,23.81
2022-08-18T22:49:37.056Z,23.79
2022-08-18T22:52:07.092Z,23.76
2022-08-18T22:54:35.026Z,23.74
2022-08-18T22:57:02.675Z,23.74
2022-08-18T22:59:29.201Z,23.74
2022-08-18T23:01:59.506Z,23.76
2022-08-18T23:04:27.235Z,23.77
2022-08-18T23:06:54.700Z,23.76
2022-08-18T23:09:24.578Z,23.75
2022-08-18T23:11:53.459Z,23.76
2022-08-18T23:14:21.369Z,23.75
2022-08-18T23:16:48.017Z,23.71
2022-08-18T23:19:16.794Z,23.68
2022-08-18T23:21:44.150Z,23.66
2022-08-18T23:24:16.416Z,23.63
2022-08-18T23:26:44.275Z,23.60
2022-08-18T23:29:11.802Z,23.59
2022-08-18T23:31:40.480Z,23.56
2022-08-18T23:34:13.669Z,23.56
2022-08-18T23:36:45.395Z,23.55
2022-08-18T23:39:13.564Z,23.46
2022-08-18T23:41:41.104Z,23.33
2022-08-18T23:44:13.350Z,23.24
2022-08-18T23:46:43.163Z,23.20
2022-08-18T23:49:14.972Z,23.19
2022-08-18T23:51:48.873Z,23.18
2022-08-18T23:54:18.844Z,23.17
2022-08-18T23:56:46.745Z,23.13
2022-08-18T23:59:14.338Z,23.09
